Flight Track Log - Related Links

Times and Time Zones

All times are in EDT time to prevent confusion due to time zone crossing. See the N286MC flight status page for this flight to view local times or setup timezone preferences in your user account.

Time Position Orientation Groundspeed Altitude Reporting Facility
EDT Latitude Longitude Course Direction KTS MPH feet Rate Location/Type
Fri 02:20:28 PM 26.0750 -80.1367 85° East 181 208 900  Level Miami Center
Fri 02:21:54 PM 26.0833 -80.0397 82° East 240 276 4,000 1,597 Climbing Miami Center
Fri 02:23:02 PM 26.0933 -79.9592 115° Southeast 264 304 5,000 609 Climbing Miami Center
Fri 02:24:02 PM 26.0636 -79.8889 121° Southeast 247 284 5,300 1,850 Climbing Miami Center
Fri 02:25:02 PM 26.0233 -79.8139 114° Southeast 252 290 8,700 3,450 Climbing Miami Center
Fri 02:26:02 PM 25.9914 -79.7322 112° Southeast 271 312 12,200 3,150 Climbing Miami Center
Fri 02:27:02 PM 25.9617 -79.6506 113° Southeast 282 325 15,000 1,900 Climbing Miami Center
Fri 02:28:02 PM 25.9258 -79.5550 113° Southeast 304 350 16,000 500 Climbing Miami Center
Fri 02:29:02 PM 25.8839 -79.4478 112° Southeast 344 396 16,000 600 Level Miami Center
Fri 02:30:02 PM 25.8422 -79.3339 116° Southeast 355 409 17,200 1,800 Climbing Miami Center
Fri 02:31:02 PM 25.7958 -79.2292 117° Southeast 363 418 19,600 2,450 Climbing Miami Center
Fri 02:32:02 PM 25.7514 -79.1314 115° Southeast 363 418 22,100 2,500 Climbing Miami Center
Fri 02:33:02 PM 25.7089 -79.0314 115° Southeast 358 412 24,600 2,150 Climbing Miami Center
Fri 02:34:02 PM 25.6725 -78.9431 117° Southeast 348 400 26,400 1,350 Climbing Miami Center
Fri 02:35:02 PM 25.6258 -78.8433 114° Southeast 348 400 27,300 850 Climbing Miami Center
Fri 02:36:02 PM 25.5814 -78.7319 116° Southeast 369 425 28,100 750 Climbing Miami Center
Fri 02:37:02 PM 25.5306 -78.6158 115° Southeast 392 451 28,800 750 Climbing Miami Center
Fri 02:38:02 PM 25.4778 -78.4886 115° Southeast 418 481 29,600 850 Climbing Miami Center
Fri 02:39:02 PM 25.4247 -78.3636 116° Southeast 441 507 30,500 900 Climbing Miami Center
Fri 02:40:02 PM 25.3675 -78.2364 115° Southeast 452 520 31,400 1,000 Climbing Miami Center
Fri 02:41:02 PM 25.3122 -78.1072 115° Southeast 457 526 32,500 1,100 Climbing Miami Center
Fri 02:42:02 PM 25.2569 -77.9778 117° Southeast 457 526 33,600 1,100 Climbing Miami Center
Fri 02:43:02 PM 25.1992 -77.8511 121° Southeast 462 532 34,700 1,100 Climbing Miami Center
Fri 02:44:02 PM 25.1353 -77.7333 121° Southeast 457 526 35,800 1,100 Climbing Miami Center
Fri 02:45:02 PM 25.0689 -77.6092 119° Southeast 447 514 36,900 1,000 Climbing Miami Center
Fri 02:46:02 PM 25.0028 -77.4756 122° Southeast 452 520 37,800 700 Climbing Miami Center
Fri 02:47:02 PM 24.9425 -77.3675 121° Southeast 460 529 38,300 500 Climbing Miami Center
Fri 02:48:02 PM 24.8761 -77.2458 120° Southeast 460 529 38,800 500 Climbing Miami Center
Fri 02:49:02 PM 24.8136 -77.1267 121° Southeast 460 529 39,300 500 Climbing Miami Center
Fri 02:50:02 PM 24.7489 -77.0075 120° Southeast 455 524 39,800 500 Climbing Miami Center
Fri 02:51:02 PM 24.6842 -76.8839 121° Southeast 455 524 40,300 500 Climbing Miami Center
Fri 02:52:02 PM 24.6194 -76.7650 121° Southeast 455 524 40,800 350 Climbing Miami Center
Fri 02:53:02 PM 24.5544 -76.6442 121° Southeast 455 524 41,000 100 Climbing Miami Center
Fri 02:54:02 PM 24.4894 -76.5231 119° Southeast 455 524 41,000  Level Miami Center
Fri 02:55:02 PM 24.4200 -76.3864 120° Southeast 460 529 41,000  Level Miami Center
Fri 02:56:02 PM 24.3528 -76.2589 122° Southeast 467 537 41,000  Level Miami Center
Fri 02:57:02 PM 24.2811 -76.1339 120° Southeast 473 544 41,000  Level Miami Center
Fri 02:58:02 PM 24.2114 -76.0022 121° Southeast 484 557 41,000  Level Miami Center
Fri 02:59:02 PM 24.1481 -75.8886 121° Southeast 484 557 41,000  Level Miami Center
Fri 03:00:02 PM 24.0761 -75.7594 120° Southeast 491 565 41,000  Level Miami Center
Fri 03:01:02 PM 24.0081 -75.6306 120° Southeast 496 571 41,000  Level Miami Center
Fri 03:02:02 PM 23.9361 -75.4969 122° Southeast 496 571 41,000  Level Miami Center
Fri 03:03:02 PM 23.8617 -75.3683 122° Southeast 496 571 41,000  Level Miami Center
Fri 03:04:02 PM 23.7892 -75.2419 121° Southeast 496 571 41,000  Level Miami Center
Fri 03:05:02 PM 23.7167 -75.1092 121° Southeast 496 571 41,000  Level Miami Center
Fri 03:06:02 PM 23.6442 -74.9786 121° Southeast 496 571 41,000  Level Miami Center
Fri 03:07:02 PM 23.5733 -74.8481 123° Southeast 496 571 41,000  Level Miami Center
Fri 03:08:02 PM 23.4986 -74.7203 121° Southeast 496 571 41,000  Level Miami Center
Fri 03:09:02 PM 23.4256 -74.5900 121° Southeast 496 571 41,000  Level Miami Center
Fri 03:10:02 PM 23.3544 -74.4625 122° Southeast 496 571 41,000  Level Miami Center
Fri 03:11:02 PM 23.2814 -74.3350 122° Southeast 491 565 41,000  Level Miami Center
Fri 03:12:02 PM 23.2081 -74.2053 122° Southeast 491 565 41,000  Level Miami Center
Fri 03:13:02 PM 23.1347 -74.0758 122° Southeast 491 565 41,000  Level Miami Center
Fri 03:14:02 PM 23.0614 -73.9486 121° Southeast 491 565 41,000  Level Miami Center
Fri 03:15:02 PM 22.9833 -73.8083 123° Southeast 491 565 41,000  Level Miami Center
Fri 03:16:02 PM 22.9075 -73.6794 122° Southeast 491 565 41,000  Level Miami Center
Fri 03:17:02 PM 22.8339 -73.5528 121° Southeast 491 565 41,000  Level Miami Center
Fri 03:18:02 PM 22.7600 -73.4217 121° Southeast 491 565 41,000  Level Miami Center
Fri 03:19:02 PM 22.6881 -73.2908 122° Southeast 496 571 41,000  Level Miami Center
Fri 03:20:02 PM 22.6139 -73.1625 123° Southeast 501 577 41,000  Level Miami Center
Fri 03:21:02 PM 22.5378 -73.0364 123° Southeast 496 571 41,000  Level Miami Center
Fri 03:22:02 PM 22.4633 -72.9106 122° Southeast 496 571 41,000  Level Miami Center
Fri 03:23:02 PM 22.3889 -72.7803 122° Southeast 496 571 41,000  Level Miami Center
Fri 03:24:02 PM 22.3167 -72.6547 122° Southeast 496 571 41,000  Level Miami Center
Fri 03:25:02 PM 22.2422 -72.5269 122° Southeast 496 571 41,000  Level Miami Center
Fri 03:26:02 PM 22.1675 -72.3994 122° Southeast 496 571 41,000  Level Miami Center
Fri 03:27:02 PM 22.0928 -72.2722 123° Southeast 496 571 41,000  Level Miami Center
Fri 03:28:02 PM 22.0158 -72.1450 122° Southeast 496 571 41,000  Level Miami Center
Fri 03:29:02 PM 21.9408 -72.0181 122° Southeast 496 571 41,000  Level Miami Center
Fri 03:30:02 PM 21.8681 -71.8933 122° Southeast 496 571 41,000  Level Miami Center
Fri 03:31:02 PM 21.7928 -71.7642 123° Southeast 496 571 41,000  Level Miami Center
Fri 03:32:02 PM 21.7175 -71.6375 123° Southeast 496 571 41,000  Level Miami Center
Fri 03:33:02 PM 21.6422 -71.5133 123° Southeast 496 571 41,000  Level Miami Center
Fri 03:34:02 PM 21.5669 -71.3869 122° Southeast 490 564 41,000  Level Miami Center
Fri 03:35:02 PM 21.5092 -71.2892 123° Southeast 490 564 41,000  Level Miami Center
Fri 03:36:02 PM 21.4247 -71.1500 122° Southeast 490 564 41,000  Level Miami Center
Fri 03:37:02 PM 21.3600 -71.0392 123° Southeast 490 564 41,000  Level Miami Center
Fri 03:38:02 PM 21.2708 -70.8894 122° Southeast 457 526 41,000  Level Miami Center
Fri 03:39:02 PM 21.1950 -70.7617 124° Southeast 485 558 41,000  Level Miami Center
Fri 03:40:02 PM 21.1169 -70.6364 122° Southeast 499 574 41,000  Level Miami Center
Fri 03:41:02 PM 21.0411 -70.5089 123° Southeast 504 580 41,000  Level Miami Center
Fri 03:42:02 PM 20.9628 -70.3817 123° Southeast 510 587 41,000  Level Miami Center
Fri 03:43:02 PM 20.8867 -70.2567 122° Southeast 510 587 41,000  Level Miami Center
Fri 03:44:02 PM 20.8103 -70.1272 123° Southeast 510 587 41,000  Level Miami Center
Fri 03:45:02 PM 20.7339 -70.0028 122° Southeast 510 587 41,000  Level Miami Center
Fri 03:46:02 PM 20.6572 -69.8736 124° Southeast 510 587 41,000  Level Miami Center
Fri 03:47:02 PM 20.5786 -69.7472 124° Southeast 510 587 41,000  Level Miami Center
Fri 03:48:02 PM 20.4997 -69.6208 123° Southeast 510 587 41,000  Level Miami Center
Fri 03:49:02 PM 20.4208 -69.4925 124° Southeast 510 587 41,000  Level Miami Center
Fri 03:50:02 PM 20.3353 -69.3581 119° Southeast 510 587 41,000  Level Miami Center
Fri 03:51:02 PM 20.2664 -69.2250 110° East 505 581 41,000  Level Miami Center
Fri 03:52:02 PM 20.2175 -69.0797 109° East 511 588 41,000  Level Miami Center
Fri 03:53:02 PM 20.1706 -68.9325 113° Southeast 516 594 41,000  Level Miami Center
Fri 03:54:02 PM 20.1206 -68.8078 108° East 516 594 41,000  Level Miami Center
Fri 03:55:02 PM 20.0806 -68.6800 112° Southeast 516 594 41,000  Level Miami Center
Fri 03:56:02 PM 20.0128 -68.5014 112° Southeast 475 547 41,000  Level Miami Center
Fri 03:57:02 PM 19.9594 -68.3594 112° Southeast 508 585 41,000  Level Miami Center
Fri 03:58:02 PM 19.9036 -68.2153 125° Southeast 519 597 41,000  Level Miami Center
Fri 03:58:43 PM 19.8500 -68.1333 109° East 530 610 41,000  Level San Juan Center
Fri 03:59:43 PM 19.8000 -67.9833 112° Southeast 520 598 41,000  Level San Juan Center
Fri 04:00:44 PM 19.7500 -67.8500 109° East 520 598 41,000  Level San Juan Center
Fri 04:01:44 PM 19.7000 -67.7000 118° Southeast 520 598 41,000  Level San Juan Center
Fri 04:02:45 PM 19.6333 -67.5667 109° East 520 598 41,000  Level San Juan Center
Fri 04:03:45 PM 19.5833 -67.4167 109° East 520 598 41,000  Level San Juan Center
Fri 04:04:45 PM 19.5333 -67.2667 118° Southeast 530 610 41,000  Level San Juan Center
Fri 04:05:45 PM 19.4667 -67.1333 109° East 520 598 41,000  Level San Juan Center
Fri 04:06:46 PM 19.4167 -66.9833 112° Southeast 530 610 41,000  Level San Juan Center
Fri 04:07:46 PM 19.3667 -66.8500 115° Southeast 520 598 41,000 -149 Level San Juan Center
Fri 04:08:47 PM 19.3000 -66.7000 109° East 530 610 40,700 -1,091 Descending San Juan Center
Fri 04:09:47 PM 19.2500 -66.5500 112° Southeast 520 598 38,800 -2,033 Descending San Juan Center
Fri 04:10:48 PM 19.2000 -66.4167 118° Southeast 510 587 36,600 -2,182 Descending San Juan Center
Fri 04:11:48 PM 19.1333 -66.2833 109° East 490 564 34,400 -2,400 Descending San Juan Center
Fri 04:12:48 PM 19.0833 -66.1333 112° Southeast 490 564 31,800 -2,700 Descending San Juan Center
Fri 04:13:48 PM 19.0333 -66.0000 112° Southeast 480 552 29,000 -2,727 Descending San Juan Center
Fri 04:14:49 PM 18.9833 -65.8667 114° Southeast 460 529 26,300 -2,678 Descending San Juan Center
Fri 04:15:49 PM 18.9333 -65.7500 114° Southeast 450 518 23,600 -2,700 Descending San Juan Center
Fri 04:16:49 PM 18.8833 -65.6333 114° Southeast 420 483 20,900 -2,678 Descending San Juan Center
Fri 04:17:50 PM 18.8333 -65.5167 109° East 410 472 18,200 -2,628 Descending San Juan Center
Fri 04:18:50 PM 18.8000 -65.4167 118° Southeast 380 437 15,600 -2,380 Descending San Juan Center
Fri 04:19:51 PM 18.7500 -65.3167 113° Southeast 350 403 13,400 -1,835 Descending San Juan Center
Fri 04:20:51 PM 18.7167 -65.2333 113° Southeast 330 380 11,900 -1,450 Descending San Juan Center
Fri 04:21:51 PM 18.6833 -65.1500 128° Southeast 310 357 10,500 -1,400 Descending San Juan Center
Fri 04:22:51 PM 18.6333 -65.0833 122° Southeast 310 357 9,100 -1,388 Descending San Juan Center
Fri 04:23:52 PM 18.5833 -65.0000 128° Southeast 300 345 7,700 -1,438 Descending San Juan Center
Fri 04:24:52 PM 18.5333 -64.9333 128° Southeast 290 334 6,200 -1,550 Descending San Juan Center
Fri 04:25:52 PM 18.4833 -64.8667 125° Southeast 270 311 4,600 -1,438 Descending San Juan Center
Fri 04:26:53 PM 18.4500 -64.8167 125° Southeast 240 276 3,300 -639 Descending San Juan Center
Fri 04:27:54 PM 18.4167 -64.7667 118° Southeast 210 242 3,300  Level San Juan Center
Fri 04:28:54 PM 18.3833 -64.7000 90° East 210 242 3,300 -200 Level San Juan Center
Fri 04:29:54 PM 18.3833 -64.6667 90° East 190 219 2,900 -650 Descending San Juan Center
Fri 04:30:54 PM 18.3833 -64.6167 90° East 170 196 2,000 -645 Descending San Juan Center
Fri 04:31:55 PM 18.3833 -64.5833 136° Southeast 110 127 1,600 -198 Descending San Juan Center
Fri 04:32:55 PM 18.3500 -64.5500 360° North 120 138 1,600 -347 Level San Juan Center
Fri 04:33:56 PM 18.4000 -64.5500 360° North 150 173 900 -689 Descending San Juan Center

Login

Don't have an account? Register now (free) for customized features, flight alerts, and more!